Time;durP1;ratioP1;P1;durP2;ratioP2;P2;SDS_P1;SDS_P2;PMS_P1;PMS_P2;Temp;Humidity;BMP_temperature;BMP_pressure;BME280_temperature;BME280_humidity;BME280_pressure;Samples;Min_cycle;Max_cycle;Signal;HPM_P1;HPM_P2
2021/05/10 00:00:39;;;;;;;3.13;1.35;;;18.00;95.30;;;;;;6339016;22;20002;-81
2021/05/10 00:03:05;;;;;;;3.40;1.70;;;18.00;95.30;;;;;;6338980;22;20025;-78
2021/05/10 00:05:31;;;;;;;2.03;1.35;;;18.00;95.60;;;;;;6338448;22;20264;-77
2021/05/10 00:07:57;;;;;;;3.63;2.13;;;18.00;95.80;;;;;;6338801;22;19999;-77
2021/05/10 00:10:23;;;;;;;2.10;1.40;;;18.00;95.80;;;;;;6338959;22;20236;-77
2021/05/10 00:12:49;;;;;;;2.33;1.40;;;18.10;95.80;;;;;;6338781;22;20225;-76
2021/05/10 00:15:15;;;;;;;2.45;1.60;;;18.10;96.10;;;;;;6338716;22;20455;-81
2021/05/10 00:17:41;;;;;;;4.28;2.00;;;18.00;96.40;;;;;;6338592;22;20007;-83
2021/05/10 00:20:08;;;;;;;2.35;1.80;;;18.10;96.70;;;;;;6338819;22;20029;-81
2021/05/10 00:22:34;;;;;;;3.13;2.20;;;18.10;97.10;;;;;;6338266;22;20003;-78
2021/05/10 00:25:00;;;;;;;3.10;2.13;;;18.10;97.50;;;;;;6338317;22;20038;-77
2021/05/10 00:27:26;;;;;;;6.93;2.30;;;18.20;97.90;;;;;;6338676;22;20425;-82
2021/05/10 00:29:51;;;;;;;2.70;2.07;;;18.20;98.10;;;;;;6338718;22;20005;-80
2021/05/10 00:32:17;;;;;;;2.55;2.00;;;18.20;98.20;;;;;;6338338;22;20002;-76
2021/05/10 00:34:43;;;;;;;2.92;1.80;;;18.20;98.20;;;;;;6340498;22;20003;-80
2021/05/10 00:37:09;;;;;;;6.50;1.80;;;18.20;97.90;;;;;;6324018;22;20022;-77
2021/05/10 00:39:35;;;;;;;2.47;1.90;;;18.20;98.00;;;;;;6338803;22;20429;-76
2021/05/10 00:42:01;;;;;;;4.00;2.40;;;18.20;98.20;;;;;;6338848;22;20029;-77
2021/05/10 00:44:27;;;;;;;3.33;2.33;;;18.20;98.60;;;;;;6338264;22;20233;-82
2021/05/10 00:46:53;;;;;;;4.82;2.28;;;18.30;98.80;;;;;;6338249;22;20263;-77
2021/05/10 00:49:20;;;;;;;4.50;2.38;;;18.20;99.00;;;;;;6338212;22;20422;-77
2021/05/10 00:51:47;;;;;;;2.05;1.77;;;18.20;99.00;;;;;;6338235;22;20057;-76
2021/05/10 00:54:13;;;;;;;5.10;2.28;;;18.30;99.20;;;;;;6338221;22;20003;-77
2021/05/10 00:56:39;;;;;;;4.57;2.87;;;18.30;99.10;;;;;;6338350;22;19995;-78
2021/05/10 00:59:05;;;;;;;3.80;2.60;;;18.30;99.20;;;;;;6338961;22;20679;-83
2021/05/10 01:01:31;;;;;;;3.85;2.83;;;18.30;99.20;;;;;;6338265;22;20011;-77
2021/05/10 01:03:57;;;;;;;4.78;3.05;;;18.30;99.20;;;;;;6338136;22;20017;-82
2021/05/10 01:06:23;;;;;;;4.32;2.88;;;18.30;99.30;;;;;;6337762;22;20038;-78
2021/05/10 01:08:49;;;;;;;3.83;2.72;;;18.30;99.40;;;;;;6338173;22;19999;-76
2021/05/10 01:11:15;;;;;;;4.50;2.28;;;18.30;99.50;;;;;;6338170;22;20009;-77
2021/05/10 01:13:42;;;;;;;4.55;2.47;;;18.20;99.50;;;;;;6338421;22;20009;-82
2021/05/10 01:16:08;;;;;;;3.40;2.20;;;18.20;99.60;;;;;;6338049;22;20426;-81
2021/05/10 01:18:34;;;;;;;3.60;2.20;;;18.20;99.70;;;;;;6338010;22;20032;-80
2021/05/10 01:21:03;;;;;;;5.97;2.50;;;18.20;99.80;;;;;;6338076;22;20298;-83
2021/05/10 01:23:29;;;;;;;3.70;2.33;;;18.20;99.90;;;;;;6338063;22;20003;-76
2021/05/10 01:25:56;;;;;;;4.78;2.40;;;18.20;99.90;;;;;;6337828;22;20132;-78
2021/05/10 01:28:22;;;;;;;6.70;2.70;;;18.20;99.90;;;;;;6338267;22;19998;-83
2021/05/10 01:30:50;;;;;;;3.53;1.80;;;18.20;99.90;;;;;;6310680;22;20074;-80
2021/05/10 01:33:18;;;;;;;4.53;2.35;;;18.20;99.90;;;;;;6338031;22;19998;-76
2021/05/10 01:35:46;;;;;;;2.80;1.90;;;18.20;99.90;;;;;;6339648;22;20003;-77
2021/05/10 01:38:13;;;;;;;4.97;2.20;;;18.10;99.90;;;;;;6340036;22;20056;-77
2021/05/10 01:40:39;;;;;;;6.05;2.35;;;18.10;99.90;;;;;;6312497;22;20002;-83
2021/05/10 01:43:05;;;;;;;4.97;2.25;;;18.00;99.90;;;;;;6340041;22;20003;-78
2021/05/10 01:45:36;;;;;;;7.75;2.05;;;18.10;99.90;;;;;;6340461;22;20089;-82
2021/05/10 01:48:07;;;;;;;4.63;2.10;;;18.10;99.90;;;;;;6350500;22;20013;-78
2021/05/10 01:50:35;;;;;;;11.63;2.65;;;18.00;99.90;;;;;;6344298;22;20040;-76
2021/05/10 01:53:01;;;;;;;7.00;2.65;;;18.00;99.90;;;;;;6340180;22;20069;-76
2021/05/10 01:55:27;;;;;;;3.25;2.42;;;18.00;99.90;;;;;;6339849;22;20026;-78
2021/05/10 01:57:57;;;;;;;5.00;1.90;;;17.90;99.90;;;;;;6312351;22;20051;-79
2021/05/10 02:00:47;;;;;;;4.30;2.00;;;17.90;99.90;;;;;;6339694;22;20531;-82
2021/05/10 02:03:15;;;;;;;3.25;1.85;;;17.90;99.90;;;;;;6338728;22;20007;-77
2021/05/10 02:05:42;;;;;;;4.30;2.20;;;17.80;99.90;;;;;;6339338;22;20081;-76
2021/05/10 02:08:10;;;;;;;6.82;2.05;;;17.90;99.90;;;;;;6339733;22;20074;-81
2021/05/10 02:10:41;;;;;;;6.45;2.60;;;17.90;99.90;;;;;;6312435;22;20005;-82
2021/05/10 02:13:11;;;;;;;7.22;3.03;;;17.90;99.90;;;;;;6339971;22;19994;-77
2021/05/10 02:15:39;;;;;;;9.18;3.30;;;17.80;99.90;;;;;;6339669;22;20079;-82
2021/05/10 02:18:06;;;;;;;9.57;4.43;;;17.80;99.90;;;;;;6312006;22;20010;-83
2021/05/10 02:20:33;;;;;;;12.38;4.60;;;17.70;99.90;;;;;;6339565;22;20018;-82
2021/05/10 02:23:00;;;;;;;18.02;5.03;;;17.70;99.90;;;;;;6339761;22;19999;-78
2021/05/10 02:25:28;;;;;;;11.18;4.63;;;17.70;99.90;;;;;;6339384;22;20067;-81
2021/05/10 02:27:54;;;;;;;13.45;4.75;;;17.70;99.90;;;;;;6339499;22;20005;-81
2021/05/10 02:30:23;;;;;;;14.23;5.68;;;17.70;99.90;;;;;;6312060;22;20002;-77
2021/05/10 02:32:50;;;;;;;11.45;4.18;;;17.70;99.90;;;;;;6339553;22;19995;-79
2021/05/10 02:35:17;;;;;;;16.08;5.22;;;17.70;99.90;;;;;;6339607;22;20002;-77
2021/05/10 02:37:44;;;;;;;8.40;4.25;;;17.70;99.90;;;;;;6339529;22;20048;-82
2021/05/10 02:40:11;;;;;;;13.40;3.90;;;17.70;99.90;;;;;;6339449;22;19999;-77
2021/05/10 02:42:37;;;;;;;9.90;4.32;;;17.70;99.90;;;;;;6339466;22;20010;-78
2021/05/10 02:45:05;;;;;;;12.23;4.35;;;17.60;99.90;;;;;;6339265;22;20033;-81
2021/05/10 02:47:31;;;;;;;12.40;4.28;;;17.60;99.90;;;;;;6338708;22;20003;-79
2021/05/10 02:49:57;;;;;;;16.48;4.18;;;17.50;99.90;;;;;;6339497;22;20460;-83
2021/05/10 02:52:23;;;;;;;12.30;4.37;;;17.50;99.90;;;;;;6311714;22;20014;-78
2021/05/10 02:54:49;;;;;;;8.20;3.42;;;17.50;99.90;;;;;;6339194;22;20002;-82
2021/05/10 02:57:16;;;;;;;9.23;3.70;;;17.60;99.90;;;;;;6339273;22;20051;-82
2021/05/10 02:59:43;;;;;;;10.15;4.20;;;17.60;99.90;;;;;;6346026;22;19998;-82
2021/05/10 03:02:09;;;;;;;11.52;4.53;;;17.60;99.90;;;;;;6342694;22;19998;-77
2021/05/10 03:04:35;;;;;;;9.77;3.83;;;17.70;99.90;;;;;;6338781;22;20056;-77
2021/05/10 03:07:01;;;;;;;10.17;3.90;;;17.70;99.90;;;;;;6339442;22;20007;-76
2021/05/10 03:09:27;;;;;;;9.80;3.97;;;17.60;99.90;;;;;;6339148;22;20010;-81
2021/05/10 03:11:53;;;;;;;10.23;3.90;;;17.60;99.90;;;;;;6339191;22;20241;-80
2021/05/10 03:14:19;;;;;;;10.55;3.72;;;17.60;99.90;;;;;;6339144;22;20081;-81
2021/05/10 03:16:45;;;;;;;9.63;4.13;;;17.60;99.90;;;;;;6338986;22;20003;-77
2021/05/10 03:19:11;;;;;;;10.25;4.05;;;17.50;99.90;;;;;;6339019;22;20003;-77
2021/05/10 03:21:40;;;;;;;8.63;3.40;;;17.50;99.90;;;;;;6339218;22;19995;-83
2021/05/10 03:24:07;;;;;;;9.75;4.03;;;17.50;99.90;;;;;;6338948;22;19999;-78
2021/05/10 03:26:34;;;;;;;18.98;4.55;;;17.50;99.90;;;;;;6338793;22;20340;-82
2021/05/10 03:29:01;;;;;;;15.63;4.93;;;17.50;99.90;;;;;;6338945;22;20002;-82
2021/05/10 03:31:27;;;;;;;19.08;4.93;;;17.50;99.90;;;;;;6338934;22;20017;-77
2021/05/10 03:33:53;;;;;;;9.88;4.15;;;17.40;99.90;;;;;;6339351;22;20027;-80
2021/05/10 03:36:19;;;;;;;13.90;4.82;;;17.40;99.90;;;;;;6338899;22;20007;-77
2021/05/10 03:38:45;;;;;;;20.10;4.27;;;17.40;99.90;;;;;;6311651;22;19999;-83
2021/05/10 03:41:11;;;;;;;9.35;4.47;;;17.40;99.90;;;;;;6338869;22;20304;-83
2021/05/10 03:43:37;;;;;;;11.48;4.90;;;17.40;99.90;;;;;;6339279;22;20028;-80
2021/05/10 03:46:03;;;;;;;12.23;4.93;;;17.40;99.90;;;;;;6338666;22;20429;-77
2021/05/10 03:48:29;;;;;;;16.90;5.28;;;17.50;99.90;;;;;;6338689;22;20006;-77
2021/05/10 03:50:54;;;;;;;16.38;5.18;;;17.50;99.90;;;;;;6338737;22;20376;-78
2021/05/10 03:53:21;;;;;;;11.50;4.68;;;17.60;99.90;;;;;;6338900;22;20003;-79
2021/05/10 03:55:47;;;;;;;11.23;4.68;;;17.60;99.90;;;;;;6339116;22;20007;-79
2021/05/10 03:58:13;;;;;;;9.82;3.90;;;17.70;99.90;;;;;;6338703;22;20291;-77
2021/05/10 04:00:39;;;;;;;11.63;3.88;;;17.70;99.90;;;;;;6339139;22;20015;-83
2021/05/10 04:03:10;;;;;;;9.63;3.87;;;17.70;99.90;;;;;;6338888;22;20045;-77
2021/05/10 04:13:50;;;;;;;16.05;3.67;;;17.80;99.90;;;;;;6252921;22;20014;-79
2021/05/10 04:16:16;;;;;;;9.93;4.05;;;17.90;99.90;;;;;;6307878;22;20505;-77
2021/05/10 04:18:42;;;;;;;13.87;4.20;;;17.90;99.90;;;;;;6307178;22;20033;-76
2021/05/10 04:21:07;;;;;;;15.43;4.40;;;17.90;99.90;;;;;;6307387;22;20003;-78
2021/05/10 04:23:33;;;;;;;10.82;4.85;;;17.90;99.90;;;;;;6307743;22;20003;-79
2021/05/10 04:25:59;;;;;;;13.17;5.57;;;17.90;99.90;;;;;;6307109;22;20069;-82
2021/05/10 04:28:25;;;;;;;14.97;5.10;;;17.90;99.90;;;;;;6307084;22;19999;-76
2021/05/10 04:30:53;;;;;;;15.75;4.60;;;18.00;99.90;;;;;;6307159;22;20011;-82
2021/05/10 04:33:29;;;;;;;14.68;4.38;;;18.00;99.90;;;;;;6307205;22;20002;-80
2021/05/10 04:35:55;;;;;;;13.32;4.80;;;18.00;99.90;;;;;;6307122;22;20053;-81
2021/05/10 04:38:22;;;;;;;12.48;5.15;;;18.00;99.90;;;;;;6309294;22;20367;-82
2021/05/10 04:40:48;;;;;;;16.50;5.40;;;18.10;99.90;;;;;;6310333;22;20023;-76
2021/05/10 04:43:14;;;;;;;16.17;5.80;;;18.10;99.90;;;;;;6310888;22;20410;-79
2021/05/10 04:45:40;;;;;;;14.38;5.45;;;18.10;99.90;;;;;;6309327;22;20041;-83
2021/05/10 04:48:06;;;;;;;16.98;5.18;;;18.10;99.90;;;;;;6312272;22;20084;-82
2021/05/10 04:50:32;;;;;;;12.82;5.05;;;18.20;99.90;;;;;;6307022;22;20003;-81
2021/05/10 04:52:59;;;;;;;10.63;5.00;;;18.20;99.90;;;;;;6306890;22;19995;-82
2021/05/10 04:55:25;;;;;;;11.55;4.90;;;18.20;99.90;;;;;;6306868;22;20060;-80
2021/05/10 04:57:51;;;;;;;14.82;4.95;;;18.20;99.90;;;;;;6307054;22;20066;-81
2021/05/10 05:00:17;;;;;;;15.68;4.20;;;18.20;99.90;;;;;;6307108;22;20023;-76
2021/05/10 05:02:45;;;;;;;14.07;4.70;;;18.20;99.90;;;;;;6307239;22;20109;-77
2021/05/10 05:05:11;;;;;;;16.85;5.65;;;18.20;99.90;;;;;;6320984;22;20456;-81
2021/05/10 05:07:39;;;;;;;18.95;6.10;;;18.30;99.90;;;;;;6338133;22;20003;-82
2021/05/10 05:10:09;;;;;;;11.52;5.07;;;18.30;99.90;;;;;;6337883;22;20064;-79
2021/05/10 05:12:39;;;;;;;15.02;4.43;;;18.30;99.90;;;;;;6338191;22;20009;-77
2021/05/10 05:15:07;;;;;;;18.75;6.55;;;18.20;99.90;;;;;;6338315;22;20006;-80
2021/05/10 05:17:34;;;;;;;21.58;5.43;;;18.20;99.90;;;;;;6338466;22;20329;-81
2021/05/10 05:20:00;;;;;;;12.07;4.32;;;18.20;99.90;;;;;;6338575;22;20025;-81
2021/05/10 05:22:26;;;;;;;9.70;4.43;;;18.30;99.90;;;;;;6340462;22;20437;-82
2021/05/10 05:24:53;;;;;;;11.68;5.30;;;18.30;99.90;;;;;;6323387;22;20635;-79
2021/05/10 05:27:19;;;;;;;12.82;4.40;;;18.40;99.90;;;;;;6339266;22;20385;-81
2021/05/10 05:29:45;;;;;;;16.73;4.90;;;18.50;99.90;;;;;;6338092;22;19994;-78
2021/05/10 05:32:11;;;;;;;11.27;5.47;;;18.40;99.90;;;;;;6338132;22;20243;-83
2021/05/10 05:34:37;;;;;;;12.90;4.93;;;18.50;99.90;;;;;;6338292;22;20003;-77
2021/05/10 05:37:03;;;;;;;18.53;6.07;;;18.50;99.90;;;;;;6337875;22;20002;-81
2021/05/10 05:39:29;;;;;;;14.67;4.17;;;18.60;99.90;;;;;;6338218;22;20026;-82
2021/05/10 05:41:55;;;;;;;12.67;4.13;;;18.60;99.90;;;;;;6338407;22;20739;-82
2021/05/10 05:44:20;;;;;;;10.35;4.28;;;18.50;99.90;;;;;;6338118;22;20003;-82
2021/05/10 05:46:50;;;;;;;15.93;5.13;;;18.50;99.90;;;;;;6337990;22;20498;-79
2021/05/10 05:49:16;;;;;;;11.55;4.25;;;18.50;99.90;;;;;;6337941;22;20665;-77
2021/05/10 05:51:46;;;;;;;11.60;4.70;;;18.50;99.90;;;;;;6338114;22;20082;-83
2021/05/10 05:54:13;;;;;;;16.40;5.15;;;18.40;99.90;;;;;;6310108;22;20006;-76
2021/05/10 05:56:39;;;;;;;12.73;4.43;;;18.50;99.90;;;;;;6337924;22;20073;-83
2021/05/10 05:59:05;;;;;;;12.90;4.25;;;18.40;99.90;;;;;;6337969;22;20004;-76
2021/05/10 06:01:31;;;;;;;11.00;4.68;;;18.50;99.90;;;;;;6337858;22;20005;-78
2021/05/10 06:03:57;;;;;;;12.13;5.27;;;18.60;99.90;;;;;;6338025;22;20072;-83
2021/05/10 06:06:23;;;;;;;8.57;4.03;;;18.60;99.90;;;;;;6338648;22;20257;-78
2021/05/10 06:08:49;;;;;;;14.18;4.45;;;18.70;99.90;;;;;;6338895;22;20231;-83
2021/05/10 06:11:15;;;;;;;17.40;4.90;;;18.80;99.90;;;;;;6338109;22;20006;-82
2021/05/10 06:13:41;;;;;;;11.32;3.90;;;18.80;99.90;;;;;;6338365;22;20002;-82
2021/05/10 06:16:07;;;;;;;15.83;4.90;;;18.90;99.90;;;;;;6284760;22;20010;-83
2021/05/10 06:18:33;;;;;;;12.13;5.88;;;18.90;99.90;;;;;;6337813;22;20003;-81
2021/05/10 06:21:05;;;;;;;12.57;4.47;;;19.00;99.90;;;;;;6338918;22;20074;-83
2021/05/10 06:23:32;;;;;;;18.00;4.03;;;19.00;99.90;;;;;;6340109;22;20003;-83
2021/05/10 06:25:58;;;;;;;11.93;4.82;;;19.10;99.90;;;;;;6340057;22;20018;-84
2021/05/10 06:28:24;;;;;;;13.05;4.68;;;19.10;99.90;;;;;;6339992;22;20005;-77
2021/05/10 06:30:50;;;;;;;14.80;4.37;;;19.10;99.90;;;;;;6339922;22;20070;-84
2021/05/10 06:33:16;;;;;;;8.18;3.65;;;19.10;99.90;;;;;;6339793;22;19995;-80
2021/05/10 06:35:42;;;;;;;7.50;3.67;;;19.20;99.90;;;;;;6343640;22;20073;-83
2021/05/10 06:38:12;;;;;;;12.05;3.78;;;19.30;99.90;;;;;;6350848;22;20259;-76
2021/05/10 06:40:38;;;;;;;9.70;3.55;;;19.30;99.90;;;;;;6340113;22;20003;-81
2021/05/10 06:43:04;;;;;;;14.02;5.07;;;19.40;99.90;;;;;;6341955;22;20084;-84
2021/05/10 06:45:30;;;;;;;11.68;3.53;;;19.40;99.90;;;;;;6339777;22;20762;-85
2021/05/10 06:47:56;;;;;;;11.00;3.43;;;19.50;99.90;;;;;;6341487;22;19998;-84
2021/05/10 06:50:22;;;;;;;7.97;4.63;;;19.50;99.90;;;;;;6340527;22;20378;-83
2021/05/10 06:52:48;;;;;;;12.40;3.40;;;19.50;99.90;;;;;;6339843;22;20002;-83
2021/05/10 06:55:14;;;;;;;8.07;4.53;;;19.60;99.90;;;;;;6340060;22;20079;-76
2021/05/10 06:57:40;;;;;;;11.50;3.45;;;19.50;99.90;;;;;;6339226;22;20715;-84
2021/05/10 07:00:06;;;;;;;10.48;3.75;;;19.60;99.90;;;;;;6339307;22;20019;-80
2021/05/10 07:02:32;;;;;;;14.10;3.60;;;19.70;99.90;;;;;;6311955;22;20078;-84
2021/05/10 07:04:58;;;;;;;9.17;3.10;;;19.80;99.90;;;;;;6341332;22;20041;-80
2021/05/10 07:07:24;;;;;;;7.35;3.50;;;19.80;99.90;;;;;;6342682;22;20014;-77
2021/05/10 07:09:50;;;;;;;6.57;3.70;;;19.90;99.90;;;;;;6342381;22;20329;-76
2021/05/10 07:12:15;;;;;;;5.43;3.40;;;20.10;99.90;;;;;;6340700;22;20236;-85
2021/05/10 07:14:41;;;;;;;11.70;4.00;;;20.20;99.90;;;;;;6341373;22;20225;-83
2021/05/10 07:17:08;;;;;;;7.50;3.10;;;20.20;99.90;;;;;;6340838;22;20226;-84
2021/05/10 07:19:35;;;;;;;7.63;3.72;;;20.30;99.80;;;;;;6340313;22;20265;-76
2021/05/10 07:22:01;;;;;;;6.10;2.80;;;20.30;99.40;;;;;;6339898;22;20426;-79
2021/05/10 07:24:27;;;;;;;6.18;3.22;;;20.30;99.30;;;;;;6339995;22;20038;-79
2021/05/10 07:26:53;;;;;;;9.30;3.42;;;20.30;99.30;;;;;;6339683;22;20015;-83
2021/05/10 07:29:19;;;;;;;11.18;3.00;;;20.40;99.30;;;;;;6340155;22;20010;-80
2021/05/10 07:31:45;;;;;;;8.10;3.10;;;20.50;98.70;;;;;;6341266;22;20429;-85
2021/05/10 07:34:11;;;;;;;4.80;3.07;;;20.50;98.70;;;;;;6341470;22;20542;-84
2021/05/10 07:36:37;;;;;;;5.60;2.85;;;20.60;98.60;;;;;;6340294;22;20437;-82
2021/05/10 07:39:04;;;;;;;7.20;2.83;;;20.70;98.40;;;;;;6343082;22;20003;-77
2021/05/10 07:41:30;;;;;;;8.70;3.30;;;20.80;98.00;;;;;;6341698;22;20022;-84
2021/05/10 07:43:56;;;;;;;10.67;3.60;;;20.80;98.00;;;;;;6340165;22;20010;-76
2021/05/10 07:46:23;;;;;;;10.15;2.72;;;20.80;97.80;;;;;;6341441;22;20007;-85
2021/05/10 07:48:48;;;;;;;8.20;2.88;;;20.80;97.60;;;;;;6347759;22;20002;-77
2021/05/10 07:51:15;;;;;;;8.97;2.63;;;20.90;97.20;;;;;;6343240;22;20072;-77
2021/05/10 07:53:41;;;;;;;9.23;3.17;;;20.80;97.00;;;;;;6340484;22;20003;-77
2021/05/10 07:56:07;;;;;;;6.05;2.92;;;20.90;97.20;;;;;;6340051;22;19999;-84
2021/05/10 07:58:36;;;;;;;5.85;3.10;;;21.00;97.00;;;;;;6340557;22;20007;-77
2021/05/10 08:01:04;;;;;;;7.88;3.03;;;21.10;97.10;;;;;;6339433;22;20010;-85
2021/05/10 08:03:30;;;;;;;9.95;2.83;;;21.10;96.60;;;;;;6311598;22;20437;-82
2021/05/10 08:05:58;;;;;;;5.18;3.20;;;21.20;96.60;;;;;;6339205;22;20011;-85
2021/05/10 08:08:25;;;;;;;8.30;2.65;;;21.30;96.40;;;;;;6340398;22;20007;-84
2021/05/10 08:10:51;;;;;;;6.45;3.15;;;21.40;96.20;;;;;;6340033;22;20047;-83
2021/05/10 08:13:19;;;;;;;5.90;2.45;;;21.40;96.10;;;;;;6340622;22;20057;-84
2021/05/10 08:15:45;;;;;;;6.13;2.60;;;21.50;96.00;;;;;;6340263;22;20334;-83
2021/05/10 08:18:12;;;;;;;2.97;2.58;;;21.70;95.50;;;;;;6341436;22;20013;-77
2021/05/10 08:20:40;;;;;;;9.57;2.53;;;21.70;95.50;;;;;;6340051;22;20061;-82
2021/05/10 08:23:07;;;;;;;13.63;3.05;;;21.80;95.30;;;;;;6339890;22;19998;-77
2021/05/10 08:25:33;;;;;;;4.97;2.50;;;21.90;94.80;;;;;;6339642;22;20011;-83
2021/05/10 08:27:59;;;;;;;5.95;2.15;;;22.00;94.90;;;;;;6339679;22;20429;-83
2021/05/10 08:30:25;;;;;;;7.57;2.80;;;22.10;95.00;;;;;;6339645;22;20006;-77
2021/05/10 08:32:53;;;;;;;9.82;2.88;;;22.20;94.60;;;;;;6339758;22;20003;-85
2021/05/10 08:35:19;;;;;;;6.35;2.63;;;22.40;94.70;;;;;;6339151;22;20317;-80
2021/05/10 08:37:45;;;;;;;4.13;2.43;;;22.50;94.70;;;;;;6339175;22;20078;-84
2021/05/10 08:40:11;;;;;;;3.03;2.73;;;22.60;93.50;;;;;;6338917;22;20052;-85
2021/05/10 08:42:37;;;;;;;4.45;2.15;;;22.60;93.70;;;;;;6339203;22;19998;-82
2021/05/10 08:45:04;;;;;;;5.85;2.42;;;22.60;93.40;;;;;;6310535;22;20144;-83
2021/05/10 08:47:33;;;;;;;6.78;2.40;;;22.80;93.10;;;;;;6339066;22;20368;-81
2021/05/10 08:50:00;;;;;;;4.57;2.35;;;22.90;92.90;;;;;;6338874;22;20456;-81
2021/05/10 08:52:26;;;;;;;4.78;2.65;;;23.00;92.00;;;;;;6311075;22;20003;-80
2021/05/10 08:54:52;;;;;;;4.13;2.30;;;23.00;92.50;;;;;;6338488;22;19999;-82
2021/05/10 08:57:18;;;;;;;4.97;2.10;;;23.10;91.40;;;;;;6338814;22;20037;-84
2021/05/10 08:59:44;;;;;;;5.40;2.38;;;23.10;90.60;;;;;;6346138;22;20542;-78
2021/05/10 09:02:11;;;;;;;4.85;2.10;;;23.20;91.10;;;;;;6350596;22;19999;-78
2021/05/10 09:04:43;;;;;;;6.00;2.50;;;23.20;91.40;;;;;;6338416;22;20006;-78
2021/05/10 09:07:22;;;;;;;9.25;3.05;;;23.10;91.50;;;;;;6338826;22;20015;-84
2021/05/10 09:10:02;;;;;;;9.02;2.75;;;23.10;91.00;;;;;;6339042;22;20006;-84
2021/05/10 09:12:44;;;;;;;7.38;2.20;;;23.10;92.00;;;;;;6339520;22;20441;-78
2021/05/10 09:15:18;;;;;;;6.00;2.15;;;23.10;90.80;;;;;;6310774;22;20015;-83
2021/05/10 09:17:52;;;;;;;6.75;2.83;;;23.20;90.40;;;;;;6339002;22;19999;-81
2021/05/10 09:20:26;;;;;;;9.68;2.70;;;23.40;91.20;;;;;;6338756;22;20078;-77
2021/05/10 09:22:58;;;;;;;5.43;2.03;;;23.50;91.10;;;;;;6310911;22;20007;-84
2021/05/10 09:25:31;;;;;;;6.03;3.00;;;23.50;89.80;;;;;;6338640;22;20007;-77
2021/05/10 09:28:13;;;;;;;7.72;2.55;;;23.70;90.00;;;;;;6338479;22;20003;-84
2021/05/10 09:30:41;;;;;;;6.07;2.50;;;23.80;89.10;;;;;;6338354;22;19999;-77
2021/05/10 09:33:25;;;;;;;6.32;2.33;;;24.00;90.10;;;;;;6338919;22;20038;-84
2021/05/10 09:35:55;;;;;;;5.10;2.60;;;24.10;89.20;;;;;;6338679;22;20401;-78
2021/05/10 09:38:23;;;;;;;3.83;2.03;;;24.30;88.00;;;;;;6338727;22;20074;-84
2021/05/10 09:40:52;;;;;;;4.00;1.50;;;24.30;87.00;;;;;;6338604;22;20010;-84
2021/05/10 09:43:39;;;;;;;3.88;2.00;;;24.40;85.40;;;;;;6338296;22;20003;-83
2021/05/10 09:46:11;;;;;;;3.05;1.75;;;24.40;82.30;;;;;;6338994;22;20007;-83
2021/05/10 09:48:42;;;;;;;3.28;1.73;;;24.50;82.70;;;;;;6338093;22;20082;-83
2021/05/10 09:51:10;;;;;;;7.25;2.10;;;24.60;82.30;;;;;;6338042;22;20003;-83
2021/05/10 09:53:42;;;;;;;4.70;2.00;;;24.70;80.80;;;;;;6337906;22;20010;-80
2021/05/10 09:56:12;;;;;;;5.10;2.28;;;24.80;81.60;;;;;;6338892;22;20456;-81
2021/05/10 09:58:43;;;;;;;4.28;1.88;;;25.00;82.00;;;;;;6340300;22;20086;-83
2021/05/10 10:01:10;;;;;;;5.57;2.20;;;25.10;80.80;;;;;;6340048;22;20005;-82
2021/05/10 10:03:38;;;;;;;5.25;1.90;;;25.20;81.50;;;;;;6339954;22;20017;-78
2021/05/10 10:06:07;;;;;;;5.18;1.80;;;25.20;81.60;;;;;;6307192;22;20016;-82
2021/05/10 10:08:34;;;;;;;3.53;1.88;;;25.30;78.30;;;;;;6308829;22;20441;-83
2021/05/10 10:11:00;;;;;;;2.95;1.52;;;25.40;81.40;;;;;;6310162;22;20041;-83
2021/05/10 10:13:27;;;;;;;4.45;2.25;;;25.60;78.10;;;;;;6325365;22;20011;-83
2021/05/10 10:15:56;;;;;;;8.63;1.90;;;25.60;81.50;;;;;;6309003;22;20003;-79
2021/05/10 10:18:23;;;;;;;7.03;2.28;;;25.90;81.10;;;;;;6308634;22;20427;-82
2021/05/10 10:20:51;;;;;;;4.00;2.35;;;26.00;80.40;;;;;;6309014;22;20003;-77
2021/05/10 10:23:22;;;;;;;9.23;2.63;;;26.10;82.10;;;;;;6308979;22;20003;-83
2021/05/10 10:25:51;;;;;;;4.22;2.00;;;26.10;82.30;;;;;;6308773;22;20038;-83
2021/05/10 10:28:20;;;;;;;3.75;2.28;;;26.30;82.10;;;;;;6309288;22;20330;-84
2021/05/10 10:30:49;;;;;;;3.92;2.22;;;26.50;81.70;;;;;;6309302;22;19995;-77
2021/05/10 10:33:23;;;;;;;5.68;2.83;;;26.70;80.00;;;;;;6308855;22;20014;-82
2021/05/10 10:35:49;;;;;;;9.15;2.72;;;26.80;82.50;;;;;;6308593;22;19999;-85
2021/05/10 10:38:25;;;;;;;7.28;2.85;;;26.90;82.40;;;;;;6308602;22;20004;-85
2021/05/10 10:41:21;;;;;;;4.22;2.63;;;27.10;81.50;;;;;;6308931;22;20453;-84
2021/05/10 10:43:48;;;;;;;8.27;2.58;;;27.30;80.60;;;;;;6308933;22;20048;-84
2021/05/10 10:46:29;;;;;;;4.03;2.50;;;27.40;81.00;;;;;;6308363;22;20042;-84
2021/05/10 10:48:57;;;;;;;7.68;2.13;;;27.40;81.70;;;;;;6308689;22;20011;-84
2021/05/10 10:51:25;;;;;;;5.07;2.67;;;27.20;82.50;;;;;;6309120;22;20336;-84
2021/05/10 10:53:54;;;;;;;6.93;2.63;;;27.40;82.10;;;;;;6308323;22;20004;-79
2021/05/10 10:56:54;;;;;;;4.35;2.80;;;27.50;83.70;;;;;;6308498;22;20074;-84
2021/05/10 10:59:24;;;;;;;5.95;2.95;;;27.40;83.80;;;;;;6308400;22;20010;-84
2021/05/10 11:01:50;;;;;;;6.30;2.42;;;27.60;83.50;;;;;;6308182;22;20052;-85
2021/05/10 11:04:24;;;;;;;5.80;2.40;;;27.60;82.80;;;;;;6310616;22;20003;-77
2021/05/10 11:06:50;;;;;;;5.50;2.72;;;27.60;83.30;;;;;;6338686;22;20019;-83
2021/05/10 11:09:16;;;;;;;5.65;2.58;;;27.80;83.20;;;;;;6339085;22;19999;-78
2021/05/10 11:11:42;;;;;;;8.20;2.75;;;27.90;83.70;;;;;;6339224;22;20006;-84
2021/05/10 11:14:14;;;;;;;4.83;2.70;;;28.00;83.80;;;;;;6339034;22;20022;-83
2021/05/10 11:16:46;;;;;;;6.40;2.70;;;28.10;83.10;;;;;;6286883;22;20006;-79
2021/05/10 11:19:35;;;;;;;5.00;2.88;;;28.20;83.00;;;;;;6338987;22;20014;-85
2021/05/10 11:22:22;;;;;;;6.88;2.60;;;28.10;83.10;;;;;;6340172;22;20068;-84
2021/05/10 11:24:48;;;;;;;8.10;2.65;;;28.20;82.80;;;;;;6355573;22;20039;-78
2021/05/10 11:27:25;;;;;;;6.38;3.22;;;28.30;82.50;;;;;;6339024;22;20017;-77
2021/05/10 11:29:52;;;;;;;9.60;3.17;;;28.40;82.50;;;;;;6339052;22;20499;-84
2021/05/10 11:32:21;;;;;;;7.38;3.00;;;28.30;82.20;;;;;;6338905;22;20006;-84
2021/05/10 11:34:48;;;;;;;8.00;2.95;;;28.50;81.90;;;;;;6338946;22;19999;-77
2021/05/10 11:37:26;;;;;;;7.72;3.67;;;28.70;82.60;;;;;;6339020;22;20034;-83
2021/05/10 11:39:54;;;;;;;8.82;3.17;;;28.90;81.60;;;;;;6339242;22;20002;-80
2021/05/10 11:42:25;;;;;;;6.85;2.83;;;29.00;81.40;;;;;;6338785;22;20052;-82
2021/05/10 11:44:55;;;;;;;7.97;2.92;;;29.00;81.50;;;;;;6338762;22;20517;-77
2021/05/10 11:47:21;;;;;;;7.00;2.95;;;29.00;81.00;;;;;;6338943;22;20337;-84
2021/05/10 11:49:51;;;;;;;10.37;2.70;;;29.10;79.90;;;;;;6338985;22;19995;-84
2021/05/10 11:52:22;;;;;;;6.55;2.83;;;29.10;80.70;;;;;;6338854;22;20029;-84
2021/05/10 11:54:59;;;;;;;5.45;3.00;;;29.20;80.60;;;;;;6338807;22;20003;-84
2021/05/10 11:57:28;;;;;;;4.38;2.63;;;29.30;81.50;;;;;;6338873;22;20337;-85
2021/05/10 12:02:29;;;;;;;3.55;2.63;;;29.40;80.30;;;;;;6338838;22;20587;-77
2021/05/10 12:05:21;;;;;;;5.75;2.97;;;29.60;80.30;;;;;;6338350;22;20472;-83
2021/05/10 12:07:49;;;;;;;10.73;2.85;;;29.60;80.60;;;;;;6331737;22;20006;-84
2021/05/10 12:10:15;;;;;;;11.07;3.70;;;29.50;80.80;;;;;;6338934;22;20006;-83
2021/05/10 12:12:42;;;;;;;11.40;3.47;;;29.20;81.80;;;;;;6338697;22;20299;-83
2021/05/10 12:15:11;;;;;;;11.90;3.67;;;29.30;80.70;;;;;;6338553;22;20073;-84
2021/05/10 12:17:38;;;;;;;4.93;3.17;;;29.30;80.20;;;;;;6338615;22;20002;-83
2021/05/10 12:20:04;;;;;;;5.07;2.35;;;29.50;79.30;;;;;;6338915;22;20379;-84
2021/05/10 12:22:38;;;;;;;4.03;2.60;;;29.60;78.20;;;;;;6338891;22;20010;-82
2021/05/10 12:25:08;;;;;;;5.45;2.55;;;29.90;78.10;;;;;;6338590;22;20229;-77
2021/05/10 12:27:42;;;;;;;3.35;3.03;;;30.00;78.20;;;;;;6338852;22;20002;-84
2021/05/10 12:30:29;;;;;;;5.95;3.08;;;30.00;78.30;;;;;;6339011;22;20048;-82
2021/05/10 12:33:01;;;;;;;10.68;3.13;;;29.80;78.60;;;;;;6338811;22;20425;-84
2021/05/10 12:35:32;;;;;;;5.82;2.70;;;30.00;78.10;;;;;;6352361;22;20028;-80
2021/05/10 12:38:00;;;;;;;4.15;2.28;;;30.00;77.60;;;;;;6352171;22;20044;-78
2021/05/10 12:40:43;;;;;;;5.03;2.50;;;30.00;76.10;;;;;;6345467;22;20336;-84
2021/05/10 12:43:17;;;;;;;9.27;3.40;;;30.20;75.80;;;;;;6338869;22;19999;-84
2021/05/10 12:45:56;;;;;;;5.35;3.00;;;30.30;77.80;;;;;;6338833;22;20060;-84
2021/05/10 12:48:27;;;;;;;6.63;2.60;;;30.10;77.80;;;;;;6338986;22;20429;-80
2021/05/10 12:50:55;;;;;;;6.93;3.33;;;30.10;76.90;;;;;;6338955;22;20039;-84
2021/05/10 12:53:58;;;;;;;7.70;3.53;;;30.10;77.30;;;;;;6339438;22;20392;-82
2021/05/10 12:56:25;;;;;;;6.20;2.97;;;30.30;76.60;;;;;;6338104;22;20018;-82
2021/05/10 12:58:52;;;;;;;5.82;2.90;;;30.30;76.90;;;;;;6339510;22;20003;-81